sensor_id;sensor_type;location;lat;lon;timestamp;pressure;altitude;pressure_sealevel;temperature;humidity
62708;BME280;48769;51.624;5.886;2023-11-21T00:00:21;100879.94;;;8.63;100.00
62708;BME280;48769;51.624;5.886;2023-11-21T00:02:46;100879.75;;;8.68;100.00
62708;BME280;48769;51.624;5.886;2023-11-21T00:05:13;100887.72;;;8.66;100.00
62708;BME280;48769;51.624;5.886;2023-11-21T00:07:42;100879.69;;;8.69;100.00
62708;BME280;48769;51.624;5.886;2023-11-21T00:10:08;100889.25;;;8.72;100.00
62708;BME280;48769;51.624;5.886;2023-11-21T00:12:35;100887.50;;;8.71;100.00
62708;BME280;48769;51.624;5.886;2023-11-21T00:15:00;100897.31;;;8.67;100.00
62708;BME280;48769;51.624;5.886;2023-11-21T00:17:27;100887.50;;;8.71;100.00
62708;BME280;48769;51.624;5.886;2023-11-21T00:19:52;100896.22;;;8.73;100.00
62708;BME280;48769;51.624;5.886;2023-11-21T00:22:18;100892.53;;;8.77;100.00
62708;BME280;48769;51.624;5.886;2023-11-21T00:24:44;100890.81;;;8.76;100.00
62708;BME280;48769;51.624;5.886;2023-11-21T00:27:09;100889.84;;;8.78;100.00
62708;BME280;48769;51.624;5.886;2023-11-21T00:29:35;100888.97;;;8.78;100.00
62708;BME280;48769;51.624;5.886;2023-11-21T00:32:00;100897.78;;;8.77;100.00
62708;BME280;48769;51.624;5.886;2023-11-21T00:34:25;100893.44;;;8.76;100.00
62708;BME280;48769;51.624;5.886;2023-11-21T00:36:51;100892.53;;;8.77;100.00
62708;BME280;48769;51.624;5.886;2023-11-21T00:39:16;100896.16;;;8.74;100.00
62708;BME280;48769;51.624;5.886;2023-11-21T00:41:41;100900.63;;;8.72;100.00
62708;BME280;48769;51.624;5.886;2023-11-21T00:44:07;100892.00;;;8.69;100.00
62708;BME280;48769;51.624;5.886;2023-11-21T00:46:32;100894.69;;;8.67;100.00
62708;BME280;48769;51.624;5.886;2023-11-21T00:48:58;100891.47;;;8.60;100.00
62708;BME280;48769;51.624;5.886;2023-11-21T00:51:23;100893.50;;;8.54;100.00
62708;BME280;48769;51.624;5.886;2023-11-21T00:53:49;100892.13;;;8.45;100.00
62708;BME280;48769;51.624;5.886;2023-11-21T00:56:14;100894.94;;;8.40;100.00
62708;BME280;48769;51.624;5.886;2023-11-21T00:58:40;100900.38;;;8.36;100.00
62708;BME280;48769;51.624;5.886;2023-11-21T01:01:11;100906.75;;;8.30;100.00
62708;BME280;48769;51.624;5.886;2023-11-21T01:03:36;100905.16;;;8.26;100.00
62708;BME280;48769;51.624;5.886;2023-11-21T01:06:02;100912.22;;;8.26;100.00
62708;BME280;48769;51.624;5.886;2023-11-21T01:08:27;100912.09;;;8.29;100.00
62708;BME280;48769;51.624;5.886;2023-11-21T01:10:53;100917.06;;;8.35;100.00
62708;BME280;48769;51.624;5.886;2023-11-21T01:13:20;100923.84;;;8.42;100.00
62708;BME280;48769;51.624;5.886;2023-11-21T01:15:45;100925.44;;;8.46;100.00
62708;BME280;48769;51.624;5.886;2023-11-21T01:18:11;100930.44;;;8.52;100.00
62708;BME280;48769;51.624;5.886;2023-11-21T01:20:36;100933.84;;;8.54;100.00
62708;BME280;48769;51.624;5.886;2023-11-21T01:23:01;100933.84;;;8.54;100.00
62708;BME280;48769;51.624;5.886;2023-11-21T01:25:27;100947.56;;;8.62;100.00
62708;BME280;48769;51.624;5.886;2023-11-21T01:27:52;100949.16;;;8.66;100.00
62708;BME280;48769;51.624;5.886;2023-11-21T01:30:18;100952.72;;;8.65;100.00
62708;BME280;48769;51.624;5.886;2023-11-21T01:32:43;100952.72;;;8.65;100.00
62708;BME280;48769;51.624;5.886;2023-11-21T01:35:09;100952.72;;;8.65;100.00
62708;BME280;48769;51.624;5.886;2023-11-21T01:37:35;100957.97;;;8.65;100.00
62708;BME280;48769;51.624;5.886;2023-11-21T01:40:00;100956.28;;;8.64;100.00
62708;BME280;48769;51.624;5.886;2023-11-21T01:42:27;100959.69;;;8.66;100.00
62708;BME280;48769;51.624;5.886;2023-11-21T01:44:54;100966.41;;;8.74;100.00
62708;BME280;48769;51.624;5.886;2023-11-21T01:47:20;100962.72;;;8.78;100.00
62708;BME280;48769;51.624;5.886;2023-11-21T01:49:46;100966.25;;;8.77;100.00
62708;BME280;48769;51.624;5.886;2023-11-21T01:52:12;100963.59;;;8.78;100.00
62708;BME280;48769;51.624;5.886;2023-11-21T01:54:38;100973.19;;;8.79;100.00
62708;BME280;48769;51.624;5.886;2023-11-21T01:57:05;100965.28;;;8.79;100.00
62708;BME280;48769;51.624;5.886;2023-11-21T01:59:36;100967.00;;;8.80;100.00
62708;BME280;48769;51.624;5.886;2023-11-21T02:02:05;100967.75;;;8.84;100.00
62708;BME280;48769;51.624;5.886;2023-11-21T02:04:32;100967.66;;;8.85;100.00
62708;BME280;48769;51.624;5.886;2023-11-21T02:06:58;100964.94;;;8.87;100.00
62708;BME280;48769;51.624;5.886;2023-11-21T02:09:27;100957.94;;;8.87;100.00
62708;BME280;48769;51.624;5.886;2023-11-21T02:11:53;100956.19;;;8.86;100.00
62708;BME280;48769;51.624;5.886;2023-11-21T02:14:19;100964.19;;;8.85;100.00
62708;BME280;48769;51.624;5.886;2023-11-21T02:16:47;100966.13;;;8.80;100.00
62708;BME280;48769;51.624;5.886;2023-11-21T02:19:18;100970.56;;;8.79;100.00
62708;BME280;48769;51.624;5.886;2023-11-21T02:21:45;100975.91;;;8.78;100.00
62708;BME280;48769;51.624;5.886;2023-11-21T02:24:13;100979.56;;;8.74;100.00
62708;BME280;48769;51.624;5.886;2023-11-21T02:26:38;100977.84;;;8.73;100.00
62708;BME280;48769;51.624;5.886;2023-11-21T02:29:03;100982.31;;;8.71;100.00
62708;BME280;48769;51.624;5.886;2023-11-21T02:31:30;100989.19;;;8.75;100.00
62708;BME280;48769;51.624;5.886;2023-11-21T02:33:55;100988.16;;;8.79;100.00
62708;BME280;48769;51.624;5.886;2023-11-21T02:36:20;100990.91;;;8.76;100.00
62708;BME280;48769;51.624;5.886;2023-11-21T02:38:47;100986.63;;;8.73;100.00
62708;BME280;48769;51.624;5.886;2023-11-21T02:41:12;100985.75;;;8.73;100.00
62708;BME280;48769;51.624;5.886;2023-11-21T02:43:38;100988.41;;;8.73;100.00
62708;BME280;48769;51.624;5.886;2023-11-21T02:46:03;100988.47;;;8.71;100.00
62708;BME280;48769;51.624;5.886;2023-11-21T02:48:29;100992.72;;;8.74;100.00
62708;BME280;48769;51.624;5.886;2023-11-21T02:50:55;100990.91;;;8.76;100.00
62708;BME280;48769;51.624;5.886;2023-11-21T02:53:21;100984.91;;;8.72;100.00
62708;BME280;48769;51.624;5.886;2023-11-21T02:55:46;100987.59;;;8.71;100.00
62708;BME280;48769;51.624;5.886;2023-11-21T02:58:12;100999.00;;;8.71;100.00
62708;BME280;48769;51.624;5.886;2023-11-21T03:00:37;101001.56;;;8.73;100.00
62708;BME280;48769;51.624;5.886;2023-11-21T03:03:02;100995.69;;;8.66;100.00
62708;BME280;48769;51.624;5.886;2023-11-21T03:05:29;101003.69;;;8.64;100.00
62708;BME280;48769;51.624;5.886;2023-11-21T03:07:54;101001.81;;;8.66;100.00
62708;BME280;48769;51.624;5.886;2023-11-21T03:10:20;101004.44;;;8.66;100.00
62708;BME280;48769;51.624;5.886;2023-11-21T03:12:45;101002.66;;;8.67;100.00
62708;BME280;48769;51.624;5.886;2023-11-21T03:15:11;101012.22;;;8.70;100.00
62708;BME280;48769;51.624;5.886;2023-11-21T03:17:36;100999.97;;;8.69;100.00
62708;BME280;48769;51.624;5.886;2023-11-21T03:20:02;101008.66;;;8.71;100.00
62708;BME280;48769;51.624;5.886;2023-11-21T03:22:28;101009.41;;;8.74;100.00
62708;BME280;48769;51.624;5.886;2023-11-21T03:24:54;101011.03;;;8.77;100.00
62708;BME280;48769;51.624;5.886;2023-11-21T03:27:19;101014.53;;;8.77;100.00
62708;BME280;48769;51.624;5.886;2023-11-21T03:29:45;101011.13;;;8.75;100.00
62708;BME280;48769;51.624;5.886;2023-11-21T03:32:12;101013.81;;;8.74;100.00
62708;BME280;48769;51.624;5.886;2023-11-21T03:34:53;101014.72;;;8.73;100.00
62708;BME280;48769;51.624;5.886;2023-11-21T03:37:19;101013.06;;;8.70;100.00
62708;BME280;48769;51.624;5.886;2023-11-21T03:39:46;101012.94;;;8.73;100.00
62708;BME280;48769;51.624;5.886;2023-11-21T03:42:11;101018.22;;;8.73;100.00
62708;BME280;48769;51.624;5.886;2023-11-21T03:44:36;101017.56;;;8.68;100.00
62708;BME280;48769;51.624;5.886;2023-11-21T03:47:02;101022.88;;;8.66;100.00
62708;BME280;48769;51.624;5.886;2023-11-21T03:49:27;101022.03;;;8.66;100.00
62708;BME280;48769;51.624;5.886;2023-11-21T03:51:54;101011.63;;;8.63;100.00
62708;BME280;48769;51.624;5.886;2023-11-21T03:54:20;101013.53;;;8.59;100.00
62708;BME280;48769;51.624;5.886;2023-11-21T03:56:45;101016.28;;;8.56;100.00
62708;BME280;48769;51.624;5.886;2023-11-21T03:59:10;101023.25;;;8.57;100.00
62708;BME280;48769;51.624;5.886;2023-11-21T04:01:36;101026.00;;;8.54;100.00
62708;BME280;48769;51.624;5.886;2023-11-21T04:04:02;101020.63;;;8.57;100.00
62708;BME280;48769;51.624;5.886;2023-11-21T04:06:27;101026.94;;;8.53;100.00
62708;BME280;48769;51.624;5.886;2023-11-21T04:08:53;101031.38;;;8.51;100.00
62708;BME280;48769;51.624;5.886;2023-11-21T04:11:18;101027.97;;;8.49;100.00
62708;BME280;48769;51.624;5.886;2023-11-21T04:13:43;101035.03;;;8.49;100.00
62708;BME280;48769;51.624;5.886;2023-11-21T04:16:09;101042.97;;;8.47;100.00
62708;BME280;48769;51.624;5.886;2023-11-21T04:18:37;101043.69;;;8.51;100.00
62708;BME280;48769;51.624;5.886;2023-11-21T04:21:05;101048.34;;;8.44;100.00
62708;BME280;48769;51.624;5.886;2023-11-21T04:23:30;101043.91;;;8.46;100.00
62708;BME280;48769;51.624;5.886;2023-11-21T04:25:57;101045.56;;;8.49;100.00
62708;BME280;48769;51.624;5.886;2023-11-21T04:28:23;101059.94;;;8.40;100.00
62708;BME280;48769;51.624;5.886;2023-11-21T04:30:49;101068.69;;;8.40;100.00
62708;BME280;48769;51.624;5.886;2023-11-21T04:33:15;101075.66;;;8.41;100.00
62708;BME280;48769;51.624;5.886;2023-11-21T04:35:41;101074.81;;;8.41;100.00
62708;BME280;48769;51.624;5.886;2023-11-21T04:38:06;101067.91;;;8.37;100.00
62708;BME280;48769;51.624;5.886;2023-11-21T04:40:31;101073.47;;;8.29;100.00
62708;BME280;48769;51.624;5.886;2023-11-21T04:42:57;101080.53;;;8.29;100.00
62708;BME280;48769;51.624;5.886;2023-11-21T04:45:22;101092.75;;;8.30;100.00
62708;BME280;48769;51.624;5.886;2023-11-21T04:47:47;101083.09;;;8.30;100.00
62708;BME280;48769;51.624;5.886;2023-11-21T04:50:13;101082.34;;;8.27;100.00
62708;BME280;48769;51.624;5.886;2023-11-21T04:52:38;101093.72;;;8.27;100.00
62708;BME280;48769;51.624;5.886;2023-11-21T04:55:04;101093.00;;;8.24;100.00
62708;BME280;48769;51.624;5.886;2023-11-21T04:57:31;101104.47;;;8.21;100.00
62708;BME280;48769;51.624;5.886;2023-11-21T04:59:57;101100.03;;;8.23;100.00
62708;BME280;48769;51.624;5.886;2023-11-21T05:02:22;101094.81;;;8.22;100.00
62708;BME280;48769;51.624;5.886;2023-11-21T05:04:48;101102.81;;;8.18;100.00
62708;BME280;48769;51.624;5.886;2023-11-21T05:07:13;101103.75;;;8.17;100.00
62708;BME280;48769;51.624;5.886;2023-11-21T05:09:42;101109.81;;;8.19;100.00
62708;BME280;48769;51.624;5.886;2023-11-21T05:12:09;101110.50;;;8.25;100.00
62708;BME280;48769;51.624;5.886;2023-11-21T05:14:35;101108.78;;;8.24;100.00
62708;BME280;48769;51.624;5.886;2023-11-21T05:17:00;101117.63;;;8.21;100.00
62708;BME280;48769;51.624;5.886;2023-11-21T05:19:26;101121.19;;;8.20;100.00
62708;BME280;48769;51.624;5.886;2023-11-21T05:21:52;101119.41;;;8.20;100.00
62708;BME280;48769;51.624;5.886;2023-11-21T05:24:17;101121.88;;;8.25;100.00
62708;BME280;48769;51.624;5.886;2023-11-21T05:26:42;101120.91;;;8.28;100.00
62708;BME280;48769;51.624;5.886;2023-11-21T05:29:08;101123.66;;;8.25;100.00
62708;BME280;48769;51.624;5.886;2023-11-21T05:31:35;101131.78;;;8.18;100.00
62708;BME280;48769;51.624;5.886;2023-11-21T05:34:00;101129.25;;;8.15;100.00
62708;BME280;48769;51.624;5.886;2023-11-21T05:36:25;101119.66;;;8.14;100.00
62708;BME280;48769;51.624;5.886;2023-11-21T05:38:50;101132.81;;;8.14;100.00
62708;BME280;48769;51.624;5.886;2023-11-21T05:41:16;101137.25;;;8.12;100.00
62708;BME280;48769;51.624;5.886;2023-11-21T05:43:42;101129.13;;;8.18;100.00
62708;BME280;48769;51.624;5.886;2023-11-21T05:46:07;101137.91;;;8.19;100.00
62708;BME280;48769;51.624;5.886;2023-11-21T05:48:34;101138.78;;;8.19;100.00
62708;BME280;48769;51.624;5.886;2023-11-21T05:51:02;101132.88;;;8.13;100.00
62708;BME280;48769;51.624;5.886;2023-11-21T05:53:28;101135.53;;;8.11;100.00
62708;BME280;48769;51.624;5.886;2023-11-21T05:55:53;101139.97;;;8.11;100.00
62708;BME280;48769;51.624;5.886;2023-11-21T05:58:18;101151.13;;;8.17;100.00
62708;BME280;48769;51.624;5.886;2023-11-21T06:00:44;101145.75;;;8.20;100.00
62708;BME280;48769;51.624;5.886;2023-11-21T06:03:09;101151.81;;;8.23;100.00
62708;BME280;48769;51.624;5.886;2023-11-21T06:05:34;101146.47;;;8.24;100.00
62708;BME280;48769;51.624;5.886;2023-11-21T06:08:00;101166.56;;;8.27;100.00
62708;BME280;48769;51.624;5.886;2023-11-21T06:10:26;101163.94;;;8.27;100.00
62708;BME280;48769;51.624;5.886;2023-11-21T06:12:52;101168.28;;;8.28;100.00
62708;BME280;48769;51.624;5.886;2023-11-21T06:15:18;101179.50;;;8.33;100.00
62708;BME280;48769;51.624;5.886;2023-11-21T06:17:48;101180.25;;;8.36;100.00
62708;BME280;48769;51.624;5.886;2023-11-21T06:20:18;101177.53;;;8.39;100.00
62708;BME280;48769;51.624;5.886;2023-11-21T06:22:45;101183.56;;;8.43;100.00
62708;BME280;48769;51.624;5.886;2023-11-21T06:25:13;101187.09;;;8.42;100.00
62708;BME280;48769;51.624;5.886;2023-11-21T06:27:47;101185.38;;;8.41;100.00
62708;BME280;48769;51.624;5.886;2023-11-21T06:30:16;101194.25;;;8.38;100.00
62708;BME280;48769;51.624;5.886;2023-11-21T06:32:44;101196.09;;;8.35;100.00
62708;BME280;48769;51.624;5.886;2023-11-21T06:35:11;101189.34;;;8.28;100.00
62708;BME280;48769;51.624;5.886;2023-11-21T06:37:36;101189.44;;;8.25;100.00
62708;BME280;48769;51.624;5.886;2023-11-21T06:40:02;101198.16;;;8.27;100.00
62708;BME280;48769;51.624;5.886;2023-11-21T06:42:29;101203.41;;;8.27;100.00
62708;BME280;48769;51.624;5.886;2023-11-21T06:44:55;101203.53;;;8.24;100.00
62708;BME280;48769;51.624;5.886;2023-11-21T06:47:24;101201.81;;;8.23;100.00
62708;BME280;48769;51.624;5.886;2023-11-21T06:49:50;101206.09;;;8.25;100.00
62708;BME280;48769;51.624;5.886;2023-11-21T06:52:16;101213.19;;;8.23;100.00
62708;BME280;48769;51.624;5.886;2023-11-21T06:54:41;101210.59;;;8.22;100.00
62708;BME280;48769;51.624;5.886;2023-11-21T06:57:07;101212.34;;;8.23;100.00
62708;BME280;48769;51.624;5.886;2023-11-21T06:59:32;101214.91;;;8.24;100.00
62708;BME280;48769;51.624;5.886;2023-11-21T07:01:58;101214.06;;;8.24;100.00
62708;BME280;48769;51.624;5.886;2023-11-21T07:04:24;101224.59;;;8.24;100.00
62708;BME280;48769;51.624;5.886;2023-11-21T07:06:51;101232.47;;;8.24;100.00
62708;BME280;48769;51.624;5.886;2023-11-21T07:09:16;101225.44;;;8.24;100.00
62708;BME280;48769;51.624;5.886;2023-11-21T07:11:41;101235.94;;;8.26;100.00
62708;BME280;48769;51.624;5.886;2023-11-21T07:14:07;101238.38;;;8.30;100.00
62708;BME280;48769;51.624;5.886;2023-11-21T07:16:35;101236.59;;;8.31;100.00
62708;BME280;48769;51.624;5.886;2023-11-21T07:19:06;101236.72;;;8.28;100.00
62708;BME280;48769;51.624;5.886;2023-11-21T07:21:32;101248.84;;;8.32;100.00
62708;BME280;48769;51.624;5.886;2023-11-21T07:23:58;101252.41;;;8.31;100.00
62708;BME280;48769;51.624;5.886;2023-11-21T07:26:23;101269.91;;;8.32;100.00
62708;BME280;48769;51.624;5.886;2023-11-21T07:28:50;101276.66;;;8.40;100.00
62708;BME280;48769;51.624;5.886;2023-11-21T07:31:16;101275.59;;;8.46;100.00
62708;BME280;48769;51.624;5.886;2023-11-21T07:33:41;101281.53;;;8.51;100.00
62708;BME280;48769;51.624;5.886;2023-11-21T07:36:07;101285.09;;;8.50;100.00
62708;BME280;48769;51.624;5.886;2023-11-21T07:38:32;101291.38;;;8.46;100.00
62708;BME280;48769;51.624;5.886;2023-11-21T07:40:58;101294.00;;;8.46;100.00
62708;BME280;48769;51.624;5.886;2023-11-21T07:43:26;101294.06;;;8.45;100.00
62708;BME280;48769;51.624;5.886;2023-11-21T07:45:51;101294.13;;;8.43;100.00
62708;BME280;48769;51.624;5.886;2023-11-21T07:48:17;101292.31;;;8.45;100.00
62708;BME280;48769;51.624;5.886;2023-11-21T07:50:45;101300.03;;;8.50;100.00
62708;BME280;48769;51.624;5.886;2023-11-21T07:53:19;101295.69;;;8.49;100.00
62708;BME280;48769;51.624;5.886;2023-11-21T07:55:45;101293.91;;;8.49;100.00
62708;BME280;48769;51.624;5.886;2023-11-21T07:58:12;101304.66;;;8.43;100.00
62708;BME280;48769;51.624;5.886;2023-11-21T08:00:38;101302.84;;;8.45;100.00
62708;BME280;48769;51.624;5.886;2023-11-21T08:03:04;101308.84;;;8.49;100.00
62708;BME280;48769;51.624;5.886;2023-11-21T08:05:31;101309.59;;;8.52;100.00
62708;BME280;48769;51.624;5.886;2023-11-21T08:07:56;101313.03;;;8.54;100.00
62708;BME280;48769;51.624;5.886;2023-11-21T08:10:21;101314.88;;;8.52;100.00
62708;BME280;48769;51.624;5.886;2023-11-21T08:12:47;101311.38;;;8.52;100.00
62708;BME280;48769;51.624;5.886;2023-11-21T08:15:13;101320.13;;;8.52;100.00
62708;BME280;48769;51.624;5.886;2023-11-21T08:17:39;101317.66;;;8.48;100.00
62708;BME280;48769;51.624;5.886;2023-11-21T08:20:05;101321.94;;;8.50;100.00
62708;BME280;48769;51.624;5.886;2023-11-21T08:22:31;101325.50;;;8.49;100.00
62708;BME280;48769;51.624;5.886;2023-11-21T08:24:57;101325.41;;;8.52;100.00
62708;BME280;48769;51.624;5.886;2023-11-21T08:27:22;101334.19;;;8.51;100.00
62708;BME280;48769;51.624;5.886;2023-11-21T08:29:48;101340.16;;;8.56;100.00
62708;BME280;48769;51.624;5.886;2023-11-21T08:32:13;101338.38;;;8.57;100.00
62708;BME280;48769;51.624;5.886;2023-11-21T08:34:38;101337.31;;;8.62;100.00
62708;BME280;48769;51.624;5.886;2023-11-21T08:37:05;101341.75;;;8.62;100.00
62708;BME280;48769;51.624;5.886;2023-11-21T08:39:30;101343.22;;;8.69;100.00
62708;BME280;48769;51.624;5.886;2023-11-21T08:41:57;101351.06;;;8.71;100.00
62708;BME280;48769;51.624;5.886;2023-11-21T08:44:22;101352.84;;;8.70;100.00
62708;BME280;48769;51.624;5.886;2023-11-21T08:46:48;101360.72;;;8.72;100.00
62708;BME280;48769;51.624;5.886;2023-11-21T08:49:14;101359.75;;;8.74;100.00
62708;BME280;48769;51.624;5.886;2023-11-21T08:51:40;101365.88;;;8.75;100.00
62708;BME280;48769;51.624;5.886;2023-11-21T08:54:06;101375.47;;;8.76;100.00
62708;BME280;48769;51.624;5.886;2023-11-21T08:56:34;101372.75;;;8.79;100.00
62708;BME280;48769;51.624;5.886;2023-11-21T08:58:59;101379.72;;;8.80;100.00
62708;BME280;48769;51.624;5.886;2023-11-21T09:01:27;101384.09;;;8.81;100.00
62708;BME280;48769;51.624;5.886;2023-11-21T09:03:52;101389.28;;;8.82;100.00
62708;BME280;48769;51.624;5.886;2023-11-21T09:06:18;101384.84;;;8.84;100.00
62708;BME280;48769;51.624;5.886;2023-11-21T09:08:43;101387.50;;;8.83;100.00
62708;BME280;48769;51.624;5.886;2023-11-21T09:11:08;101389.13;;;8.87;100.00
62708;BME280;48769;51.624;5.886;2023-11-21T09:13:34;101391.72;;;8.88;100.00
62708;BME280;48769;51.624;5.886;2023-11-21T09:16:00;101394.03;;;8.98;100.00
62708;BME280;48769;51.624;5.886;2023-11-21T09:18:25;101395.28;;;9.11;100.00
62708;BME280;48769;51.624;5.886;2023-11-21T09:20:50;101396.84;;;9.17;100.00
62708;BME280;48769;51.624;5.886;2023-11-21T09:23:16;101400.06;;;9.25;100.00
62708;BME280;48769;51.624;5.886;2023-11-21T09:25:41;101401.44;;;9.35;100.00
62708;BME280;48769;51.624;5.886;2023-11-21T09:28:07;101398.75;;;9.36;100.00
62708;BME280;48769;51.624;5.886;2023-11-21T09:30:34;101402.91;;;9.42;100.00
62708;BME280;48769;51.624;5.886;2023-11-21T09:33:00;101413.44;;;9.42;100.00
62708;BME280;48769;51.624;5.886;2023-11-21T09:35:26;101408.13;;;9.44;100.00
62708;BME280;48769;51.624;5.886;2023-11-21T09:37:53;101416.78;;;9.47;100.00
62708;BME280;48769;51.624;5.886;2023-11-21T09:40:21;101418.50;;;9.48;100.00
62708;BME280;48769;51.624;5.886;2023-11-21T09:42:57;101421.44;;;9.41;100.00
62708;BME280;48769;51.624;5.886;2023-11-21T09:45:27;101422.41;;;9.38;100.00
62708;BME280;48769;51.624;5.886;2023-11-21T09:47:54;101426.81;;;9.38;100.00
62708;BME280;48769;51.624;5.886;2023-11-21T09:50:23;101434.41;;;9.47;100.00
62708;BME280;48769;51.624;5.886;2023-11-21T09:55:16;101438.19;;;9.63;100.00
62708;BME280;48769;51.624;5.886;2023-11-21T09:57:44;101436.19;;;9.68;100.00
62708;BME280;48769;51.624;5.886;2023-11-21T10:00:11;101445.75;;;9.72;100.00
62708;BME280;48769;51.624;5.886;2023-11-21T10:02:38;101442.47;;;9.66;100.00
62708;BME280;48769;51.624;5.886;2023-11-21T10:05:05;101456.69;;;9.62;100.00
62708;BME280;48769;51.624;5.886;2023-11-21T10:07:31;101467.00;;;9.68;100.00
62708;BME280;48769;51.624;5.886;2023-11-21T10:09:58;101460.66;;;9.73;100.00
62708;BME280;48769;51.624;5.886;2023-11-21T10:12:26;101459.91;;;9.70;100.00
62708;BME280;48769;51.624;5.886;2023-11-21T10:14:54;101465.41;;;9.64;100.00
62708;BME280;48769;51.624;5.886;2023-11-21T10:17:22;101465.47;;;9.62;100.00
62708;BME280;48769;51.624;5.886;2023-11-21T10:19:50;101465.38;;;9.65;100.00
62708;BME280;48769;51.624;5.886;2023-11-21T10:22:15;101479.22;;;9.70;100.00
62708;BME280;48769;51.624;5.886;2023-11-21T10:24:41;101475.50;;;9.76;100.00
62708;BME280;48769;51.624;5.886;2023-11-21T10:27:08;101487.03;;;9.73;100.00
62708;BME280;48769;51.624;5.886;2023-11-21T10:29:34;101494.66;;;9.81;100.00
62708;BME280;48769;51.624;5.886;2023-11-21T10:32:04;101496.16;;;9.88;100.00
62708;BME280;48769;51.624;5.886;2023-11-21T10:34:30;101489.75;;;9.94;100.00
62708;BME280;48769;51.624;5.886;2023-11-21T10:36:56;101492.25;;;9.98;100.00
62708;BME280;48769;51.624;5.886;2023-11-21T10:39:23;101494.81;;;10.00;100.00
62708;BME280;48769;51.624;5.886;2023-11-21T10:41:53;101496.41;;;10.04;100.00
62708;BME280;48769;51.624;5.886;2023-11-21T10:44:19;101505.97;;;10.06;100.00
62708;BME280;48769;51.624;5.886;2023-11-21T10:46:52;101501.56;;;10.07;100.00
62708;BME280;48769;51.624;5.886;2023-11-21T10:49:24;101499.75;;;10.09;100.00
62708;BME280;48769;51.624;5.886;2023-11-21T10:51:53;101496.16;;;10.10;100.00
62708;BME280;48769;51.624;5.886;2023-11-21T10:54:20;101493.47;;;10.12;100.00
62708;BME280;48769;51.624;5.886;2023-11-21T10:56:48;101501.16;;;10.18;100.00
62708;BME280;48769;51.624;5.886;2023-11-21T10:59:15;101501.81;;;10.23;100.00
62708;BME280;48769;51.624;5.886;2023-11-21T11:01:45;101508.75;;;10.27;100.00
62708;BME280;48769;51.624;5.886;2023-11-21T11:04:14;101507.75;;;10.29;100.00
62708;BME280;48769;51.624;5.886;2023-11-21T11:06:46;101500.00;;;10.25;100.00
62708;BME280;48769;51.624;5.886;2023-11-21T11:09:15;101498.41;;;10.21;100.00
62708;BME280;48769;51.624;5.886;2023-11-21T11:11:42;101493.78;;;10.27;100.00
62708;BME280;48769;51.624;5.886;2023-11-21T11:14:10;101492.25;;;10.20;100.00
62708;BME280;48769;51.624;5.886;2023-11-21T11:16:38;101491.06;;;10.29;100.00
62708;BME280;48769;51.624;5.886;2023-11-21T11:19:07;101501.13;;;10.41;100.00
62708;BME280;48769;51.624;5.886;2023-11-21T11:21:56;101509.66;;;10.48;100.00
62708;BME280;48769;51.624;5.886;2023-11-21T11:35:55;101536.56;;;10.58;100.00
62708;BME280;48769;51.624;5.886;2023-11-21T11:38:22;101538.38;;;10.57;100.00
62708;BME280;48769;51.624;5.886;2023-11-21T11:40:53;101525.31;;;10.52;100.00
62708;BME280;48769;51.624;5.886;2023-11-21T11:43:27;101534.13;;;10.53;100.00
62708;BME280;48769;51.624;5.886;2023-11-21T11:45:56;101539.22;;;10.58;100.00
62708;BME280;48769;51.624;5.886;2023-11-21T11:48:22;101541.50;;;10.67;100.00
62708;BME280;48769;51.624;5.886;2023-11-21T11:51:05;101545.22;;;10.83;100.00
62708;BME280;48769;51.624;5.886;2023-11-21T11:53:41;101552.22;;;10.84;100.00
62708;BME280;48769;51.624;5.886;2023-11-21T11:56:22;101556.53;;;10.87;100.00
62708;BME280;48769;51.624;5.886;2023-11-21T11:58:49;101560.97;;;10.86;100.00
62708;BME280;48769;51.624;5.886;2023-11-21T12:01:18;101565.16;;;10.70;100.00
62708;BME280;48769;51.624;5.886;2023-11-21T12:03:44;101565.84;;;10.53;100.00
62708;BME280;48769;51.624;5.886;2023-11-21T12:06:09;101576.53;;;10.50;100.00
62708;BME280;48769;51.624;5.886;2023-11-21T12:08:37;101572.88;;;10.52;100.00
62708;BME280;48769;51.624;5.886;2023-11-21T12:11:03;101580.75;;;10.54;100.00
62708;BME280;48769;51.624;5.886;2023-11-21T12:13:29;101583.44;;;10.52;100.00
62708;BME280;48769;51.624;5.886;2023-11-21T12:15:54;101589.00;;;10.46;100.00
62708;BME280;48769;51.624;5.886;2023-11-21T12:18:20;101589.97;;;10.44;100.00
62708;BME280;48769;51.624;5.886;2023-11-21T12:20:46;101601.38;;;10.44;100.00
62708;BME280;48769;51.624;5.886;2023-11-21T12:23:13;101599.56;;;10.46;100.00
62708;BME280;48769;51.624;5.886;2023-11-21T12:25:41;101597.88;;;10.44;100.00
62708;BME280;48769;51.624;5.886;2023-11-21T12:28:07;101595.38;;;10.41;100.00
62708;BME280;48769;51.624;5.886;2023-11-21T12:30:35;101583.25;;;10.35;100.00
62708;BME280;48769;51.624;5.886;2023-11-21T12:33:03;101598.06;;;10.39;100.00
62708;BME280;48769;51.624;5.886;2023-11-21T12:35:32;101595.53;;;10.36;100.00
62708;BME280;48769;51.624;5.886;2023-11-21T12:38:01;101594.63;;;10.37;100.00
62708;BME280;48769;51.624;5.886;2023-11-21T12:40:30;101598.06;;;10.39;100.00
62708;BME280;48769;51.624;5.886;2023-11-21T12:42:59;101612.94;;;10.42;100.00
62708;BME280;48769;51.624;5.886;2023-11-21T12:45:27;101616.31;;;10.45;100.00
62708;BME280;48769;51.624;5.886;2023-11-21T12:47:58;101605.63;;;10.48;100.00
62708;BME280;48769;51.624;5.886;2023-11-21T12:50:26;101615.53;;;10.43;100.00
62708;BME280;48769;51.624;5.886;2023-11-21T12:53:04;101615.63;;;10.40;100.00
62708;BME280;48769;51.624;5.886;2023-11-21T12:55:34;101613.78;;;10.42;100.00
62708;BME280;48769;51.624;5.886;2023-11-21T12:58:03;101622.75;;;10.38;100.00